sensor_id;sensor_type;location;lat;lon;timestamp;temperature;humidity
15384;DHT22;7790;53.022;12.968;2024-03-25T00:02:19;22.70;41.30
15384;DHT22;7790;53.022;12.968;2024-03-25T00:06:20;22.70;41.30
15384;DHT22;7790;53.022;12.968;2024-03-25T00:10:21;22.70;41.20
15384;DHT22;7790;53.022;12.968;2024-03-25T00:14:22;22.70;41.10
15384;DHT22;7790;53.022;12.968;2024-03-25T00:18:23;22.80;41.20
15384;DHT22;7790;53.022;12.968;2024-03-25T00:22:24;22.70;41.10
15384;DHT22;7790;53.022;12.968;2024-03-25T00:26:27;22.70;41.00
15384;DHT22;7790;53.022;12.968;2024-03-25T00:30:28;22.80;41.00
15384;DHT22;7790;53.022;12.968;2024-03-25T00:34:29;22.80;40.80
15384;DHT22;7790;53.022;12.968;2024-03-25T00:38:30;22.80;41.00
15384;DHT22;7790;53.022;12.968;2024-03-25T00:42:31;22.80;40.80
15384;DHT22;7790;53.022;12.968;2024-03-25T00:46:32;22.70;40.90
15384;DHT22;7790;53.022;12.968;2024-03-25T00:50:32;22.60;40.90
15384;DHT22;7790;53.022;12.968;2024-03-25T00:54:33;22.50;41.00
15384;DHT22;7790;53.022;12.968;2024-03-25T00:58:34;22.40;40.90
15384;DHT22;7790;53.022;12.968;2024-03-25T01:02:35;22.50;41.10
15384;DHT22;7790;53.022;12.968;2024-03-25T01:06:36;22.40;41.00
15384;DHT22;7790;53.022;12.968;2024-03-25T01:10:36;22.40;41.10
15384;DHT22;7790;53.022;12.968;2024-03-25T01:14:37;22.50;41.00
15384;DHT22;7790;53.022;12.968;2024-03-25T01:18:38;22.50;41.00
15384;DHT22;7790;53.022;12.968;2024-03-25T01:22:39;22.50;40.80
15384;DHT22;7790;53.022;12.968;2024-03-25T01:26:40;22.50;40.80
15384;DHT22;7790;53.022;12.968;2024-03-25T01:30:41;22.50;40.90
15384;DHT22;7790;53.022;12.968;2024-03-25T01:34:42;22.50;40.80
15384;DHT22;7790;53.022;12.968;2024-03-25T01:38:44;22.60;40.70
15384;DHT22;7790;53.022;12.968;2024-03-25T01:43:04;22.70;40.70
15384;DHT22;7790;53.022;12.968;2024-03-25T01:47:05;22.70;40.60
15384;DHT22;7790;53.022;12.968;2024-03-25T01:51:06;22.70;40.60
15384;DHT22;7790;53.022;12.968;2024-03-25T01:55:10;22.70;40.60
15384;DHT22;7790;53.022;12.968;2024-03-25T01:59:15;22.70;40.60
15384;DHT22;7790;53.022;12.968;2024-03-25T02:03:17;22.80;40.60
15384;DHT22;7790;53.022;12.968;2024-03-25T02:07:18;22.80;40.50
15384;DHT22;7790;53.022;12.968;2024-03-25T02:11:19;22.70;40.60
15384;DHT22;7790;53.022;12.968;2024-03-25T02:15:21;22.70;40.50
15384;DHT22;7790;53.022;12.968;2024-03-25T02:19:23;22.70;40.40
15384;DHT22;7790;53.022;12.968;2024-03-25T02:23:28;22.70;40.40
15384;DHT22;7790;53.022;12.968;2024-03-25T02:27:30;22.60;40.50
15384;DHT22;7790;53.022;12.968;2024-03-25T02:31:32;22.50;40.50
15384;DHT22;7790;53.022;12.968;2024-03-25T02:35:33;22.40;40.60
15384;DHT22;7790;53.022;12.968;2024-03-25T02:39:35;22.30;40.60
15384;DHT22;7790;53.022;12.968;2024-03-25T02:43:36;22.30;40.90
15384;DHT22;7790;53.022;12.968;2024-03-25T02:47:37;22.30;40.70
15384;DHT22;7790;53.022;12.968;2024-03-25T02:51:38;22.40;40.60
15384;DHT22;7790;53.022;12.968;2024-03-25T02:55:39;22.40;40.40
15384;DHT22;7790;53.022;12.968;2024-03-25T02:59:39;22.50;40.40
15384;DHT22;7790;53.022;12.968;2024-03-25T03:03:41;22.50;40.30
15384;DHT22;7790;53.022;12.968;2024-03-25T03:07:43;22.50;40.20
15384;DHT22;7790;53.022;12.968;2024-03-25T03:11:44;22.60;40.30
15384;DHT22;7790;53.022;12.968;2024-03-25T03:15:44;22.60;40.30
15384;DHT22;7790;53.022;12.968;2024-03-25T03:19:45;22.60;40.30
15384;DHT22;7790;53.022;12.968;2024-03-25T03:23:46;22.60;40.20
15384;DHT22;7790;53.022;12.968;2024-03-25T03:27:47;22.70;40.30
15384;DHT22;7790;53.022;12.968;2024-03-25T03:31:48;22.70;40.30
15384;DHT22;7790;53.022;12.968;2024-03-25T03:35:49;22.60;40.30
15384;DHT22;7790;53.022;12.968;2024-03-25T03:39:50;22.60;40.30
15384;DHT22;7790;53.022;12.968;2024-03-25T03:43:51;22.60;40.40
15384;DHT22;7790;53.022;12.968;2024-03-25T03:47:52;22.60;40.30
15384;DHT22;7790;53.022;12.968;2024-03-25T03:51:52;22.60;40.10
15384;DHT22;7790;53.022;12.968;2024-03-25T03:55:57;22.70;40.20
15384;DHT22;7790;53.022;12.968;2024-03-25T03:59:58;22.70;40.20
15384;DHT22;7790;53.022;12.968;2024-03-25T04:03:59;22.70;40.10
15384;DHT22;7790;53.022;12.968;2024-03-25T04:08:00;22.70;40.10
15384;DHT22;7790;53.022;12.968;2024-03-25T04:12:00;22.70;40.10
15384;DHT22;7790;53.022;12.968;2024-03-25T04:16:05;22.60;40.20
15384;DHT22;7790;53.022;12.968;2024-03-25T04:20:06;22.50;40.20
15384;DHT22;7790;53.022;12.968;2024-03-25T04:24:11;22.40;40.30
15384;DHT22;7790;53.022;12.968;2024-03-25T04:28:12;22.40;40.40
15384;DHT22;7790;53.022;12.968;2024-03-25T04:32:13;22.30;40.40
15384;DHT22;7790;53.022;12.968;2024-03-25T04:36:14;22.40;40.40
15384;DHT22;7790;53.022;12.968;2024-03-25T04:40:14;22.40;40.20
15384;DHT22;7790;53.022;12.968;2024-03-25T04:44:15;22.40;40.20
15384;DHT22;7790;53.022;12.968;2024-03-25T04:48:18;22.60;40.00
15384;DHT22;7790;53.022;12.968;2024-03-25T04:52:19;22.80;39.70
15384;DHT22;7790;53.022;12.968;2024-03-25T04:56:23;22.90;39.50
15384;DHT22;7790;53.022;12.968;2024-03-25T05:00:24;22.90;39.40
15384;DHT22;7790;53.022;12.968;2024-03-25T05:04:25;23.00;39.40
15384;DHT22;7790;53.022;12.968;2024-03-25T05:08:26;23.10;39.30
15384;DHT22;7790;53.022;12.968;2024-03-25T05:12:27;23.10;39.30
15384;DHT22;7790;53.022;12.968;2024-03-25T05:16:30;23.10;39.40
15384;DHT22;7790;53.022;12.968;2024-03-25T05:20:31;23.10;39.80
15384;DHT22;7790;53.022;12.968;2024-03-25T05:24:32;23.00;40.00
15384;DHT22;7790;53.022;12.968;2024-03-25T05:28:33;23.00;40.10
15384;DHT22;7790;53.022;12.968;2024-03-25T05:32:34;22.90;40.20
15384;DHT22;7790;53.022;12.968;2024-03-25T05:36:34;22.90;40.10
15384;DHT22;7790;53.022;12.968;2024-03-25T05:40:36;22.90;40.30
15384;DHT22;7790;53.022;12.968;2024-03-25T05:44:37;22.90;40.30
15384;DHT22;7790;53.022;12.968;2024-03-25T05:48:38;22.80;40.20
15384;DHT22;7790;53.022;12.968;2024-03-25T05:52:38;22.80;40.30
15384;DHT22;7790;53.022;12.968;2024-03-25T05:56:39;22.70;40.30
15384;DHT22;7790;53.022;12.968;2024-03-25T06:00:41;22.50;40.40
15384;DHT22;7790;53.022;12.968;2024-03-25T06:04:42;22.50;40.60
15384;DHT22;7790;53.022;12.968;2024-03-25T06:08:43;22.50;40.50
15384;DHT22;7790;53.022;12.968;2024-03-25T06:12:44;22.50;40.60
15384;DHT22;7790;53.022;12.968;2024-03-25T06:16:46;22.50;40.50
15384;DHT22;7790;53.022;12.968;2024-03-25T06:20:47;22.50;40.40
15384;DHT22;7790;53.022;12.968;2024-03-25T06:24:48;22.60;40.40
15384;DHT22;7790;53.022;12.968;2024-03-25T06:28:50;22.50;40.40
15384;DHT22;7790;53.022;12.968;2024-03-25T06:32:52;22.60;40.30
15384;DHT22;7790;53.022;12.968;2024-03-25T06:37:11;22.60;40.20
15384;DHT22;7790;53.022;12.968;2024-03-25T06:41:12;22.70;40.20
15384;DHT22;7790;53.022;12.968;2024-03-25T06:45:13;22.70;40.20
15384;DHT22;7790;53.022;12.968;2024-03-25T06:49:15;22.70;40.30
15384;DHT22;7790;53.022;12.968;2024-03-25T06:53:16;22.70;40.20
15384;DHT22;7790;53.022;12.968;2024-03-25T06:57:17;22.70;40.30
15384;DHT22;7790;53.022;12.968;2024-03-25T07:01:18;22.70;40.30
15384;DHT22;7790;53.022;12.968;2024-03-25T07:05:19;22.70;40.30
15384;DHT22;7790;53.022;12.968;2024-03-25T07:09:20;22.70;40.30
15384;DHT22;7790;53.022;12.968;2024-03-25T07:13:21;22.70;40.30
15384;DHT22;7790;53.022;12.968;2024-03-25T07:17:24;22.70;40.30
15384;DHT22;7790;53.022;12.968;2024-03-25T07:21:26;22.70;40.20
15384;DHT22;7790;53.022;12.968;2024-03-25T07:25:27;22.70;40.10
15384;DHT22;7790;53.022;12.968;2024-03-25T07:29:28;22.70;40.10
15384;DHT22;7790;53.022;12.968;2024-03-25T07:33:29;22.70;40.20
15384;DHT22;7790;53.022;12.968;2024-03-25T07:37:30;22.60;40.20
15384;DHT22;7790;53.022;12.968;2024-03-25T07:41:30;22.50;40.20
15384;DHT22;7790;53.022;12.968;2024-03-25T07:45:31;22.40;40.40
15384;DHT22;7790;53.022;12.968;2024-03-25T07:49:32;22.40;40.40
15384;DHT22;7790;53.022;12.968;2024-03-25T07:53:34;22.40;40.40
15384;DHT22;7790;53.022;12.968;2024-03-25T07:57:36;22.40;40.30
15384;DHT22;7790;53.022;12.968;2024-03-25T08:01:36;22.40;40.20
15384;DHT22;7790;53.022;12.968;2024-03-25T08:05:38;22.50;40.20
15384;DHT22;7790;53.022;12.968;2024-03-25T08:09:39;22.50;40.10
15384;DHT22;7790;53.022;12.968;2024-03-25T08:13:40;22.50;40.20
15384;DHT22;7790;53.022;12.968;2024-03-25T08:17:41;22.50;40.10
15384;DHT22;7790;53.022;12.968;2024-03-25T08:21:41;22.60;40.30
15384;DHT22;7790;53.022;12.968;2024-03-25T08:25:42;22.50;40.20
15384;DHT22;7790;53.022;12.968;2024-03-25T08:29:43;22.50;40.20
15384;DHT22;7790;53.022;12.968;2024-03-25T08:33:44;22.50;40.30
15384;DHT22;7790;53.022;12.968;2024-03-25T08:37:45;22.70;40.10
15384;DHT22;7790;53.022;12.968;2024-03-25T08:41:46;22.70;40.40
15384;DHT22;7790;53.022;12.968;2024-03-25T08:45:46;22.70;40.20
15384;DHT22;7790;53.022;12.968;2024-03-25T08:49:47;22.80;40.20
15384;DHT22;7790;53.022;12.968;2024-03-25T08:53:48;22.80;40.50
15384;DHT22;7790;53.022;12.968;2024-03-25T08:57:50;22.80;40.40
15384;DHT22;7790;53.022;12.968;2024-03-25T09:01:52;22.80;40.40
15384;DHT22;7790;53.022;12.968;2024-03-25T09:05:53;22.80;40.30
15384;DHT22;7790;53.022;12.968;2024-03-25T09:09:55;22.80;40.30
15384;DHT22;7790;53.022;12.968;2024-03-25T09:14:14;22.80;40.50
15384;DHT22;7790;53.022;12.968;2024-03-25T09:18:15;22.70;40.50
15384;DHT22;7790;53.022;12.968;2024-03-25T09:22:16;22.60;40.50
15384;DHT22;7790;53.022;12.968;2024-03-25T09:26:17;22.50;40.70
15384;DHT22;7790;53.022;12.968;2024-03-25T09:30:18;22.50;40.70
15384;DHT22;7790;53.022;12.968;2024-03-25T09:34:19;22.50;40.80
15384;DHT22;7790;53.022;12.968;2024-03-25T09:38:20;22.50;40.70
15384;DHT22;7790;53.022;12.968;2024-03-25T09:42:33;22.60;40.70
15384;DHT22;7790;53.022;12.968;2024-03-25T09:46:36;22.60;40.70
15384;DHT22;7790;53.022;12.968;2024-03-25T09:50:39;22.60;40.60
15384;DHT22;7790;53.022;12.968;2024-03-25T09:54:40;22.70;40.70
15384;DHT22;7790;53.022;12.968;2024-03-25T09:58:43;22.70;40.60
15384;DHT22;7790;53.022;12.968;2024-03-25T10:02:44;22.70;40.60
15384;DHT22;7790;53.022;12.968;2024-03-25T10:06:45;22.80;40.50
15384;DHT22;7790;53.022;12.968;2024-03-25T10:10:46;22.80;40.50
15384;DHT22;7790;53.022;12.968;2024-03-25T10:14:47;22.80;40.50
15384;DHT22;7790;53.022;12.968;2024-03-25T10:18:48;22.80;40.40
15384;DHT22;7790;53.022;12.968;2024-03-25T10:22:49;22.90;40.50
15384;DHT22;7790;53.022;12.968;2024-03-25T10:26:50;23.00;40.40
15384;DHT22;7790;53.022;12.968;2024-03-25T10:30:51;23.10;40.30
15384;DHT22;7790;53.022;12.968;2024-03-25T10:34:52;23.10;40.30
15384;DHT22;7790;53.022;12.968;2024-03-25T10:38:55;23.00;40.50
15384;DHT22;7790;53.022;12.968;2024-03-25T10:43:03;22.90;40.70
15384;DHT22;7790;53.022;12.968;2024-03-25T10:47:06;22.80;40.80
15384;DHT22;7790;53.022;12.968;2024-03-25T10:51:09;22.70;41.00
15384;DHT22;7790;53.022;12.968;2024-03-25T10:55:11;22.70;41.10
15384;DHT22;7790;53.022;12.968;2024-03-25T10:59:12;22.50;41.20
15384;DHT22;7790;53.022;12.968;2024-03-25T11:03:13;22.40;41.30
15384;DHT22;7790;53.022;12.968;2024-03-25T11:07:15;22.30;41.50
15384;DHT22;7790;53.022;12.968;2024-03-25T11:11:16;22.20;41.50
15384;DHT22;7790;53.022;12.968;2024-03-25T11:15:17;22.20;41.50
15384;DHT22;7790;53.022;12.968;2024-03-25T11:19:18;22.10;41.40
15384;DHT22;7790;53.022;12.968;2024-03-25T11:23:19;22.00;41.40
15384;DHT22;7790;53.022;12.968;2024-03-25T11:27:26;21.90;41.60
15384;DHT22;7790;53.022;12.968;2024-03-25T11:31:29;21.80;41.50
15384;DHT22;7790;53.022;12.968;2024-03-25T11:35:38;21.80;41.70
15384;DHT22;7790;53.022;12.968;2024-03-25T11:39:38;21.70;41.20
15384;DHT22;7790;53.022;12.968;2024-03-25T11:43:41;21.70;41.10
15384;DHT22;7790;53.022;12.968;2024-03-25T11:47:43;21.60;41.40
15384;DHT22;7790;53.022;12.968;2024-03-25T11:51:44;21.60;41.90
15384;DHT22;7790;53.022;12.968;2024-03-25T11:55:47;21.60;42.10
15384;DHT22;7790;53.022;12.968;2024-03-25T11:59:48;21.50;42.20
15384;DHT22;7790;53.022;12.968;2024-03-25T12:03:50;21.50;42.50
15384;DHT22;7790;53.022;12.968;2024-03-25T12:07:51;21.50;42.30
15384;DHT22;7790;53.022;12.968;2024-03-25T12:11:53;21.50;42.00
15384;DHT22;7790;53.022;12.968;2024-03-25T12:15:56;21.70;41.90
15384;DHT22;7790;53.022;12.968;2024-03-25T12:20:07;21.90;41.60
15384;DHT22;7790;53.022;12.968;2024-03-25T12:24:10;22.00;41.50
15384;DHT22;7790;53.022;12.968;2024-03-25T12:28:11;22.20;41.40
15384;DHT22;7790;53.022;12.968;2024-03-25T12:32:12;22.20;41.20
15384;DHT22;7790;53.022;12.968;2024-03-25T12:36:13;22.30;41.20
15384;DHT22;7790;53.022;12.968;2024-03-25T12:40:26;22.40;41.30
15384;DHT22;7790;53.022;12.968;2024-03-25T12:44:27;22.50;41.30
15384;DHT22;7790;53.022;12.968;2024-03-25T12:48:28;22.50;41.30
15384;DHT22;7790;53.022;12.968;2024-03-25T12:52:29;22.50;41.10
15384;DHT22;7790;53.022;12.968;2024-03-25T12:56:30;22.60;41.10
15384;DHT22;7790;53.022;12.968;2024-03-25T13:00:30;22.70;41.10
15384;DHT22;7790;53.022;12.968;2024-03-25T13:04:31;22.70;41.20
15384;DHT22;7790;53.022;12.968;2024-03-25T13:08:32;22.70;41.30
15384;DHT22;7790;53.022;12.968;2024-03-25T13:12:33;22.70;41.20
15384;DHT22;7790;53.022;12.968;2024-03-25T13:16:34;22.70;41.30
15384;DHT22;7790;53.022;12.968;2024-03-25T13:20:35;22.80;41.30
15384;DHT22;7790;53.022;12.968;2024-03-25T13:24:36;22.70;41.40
15384;DHT22;7790;53.022;12.968;2024-03-25T13:28:37;22.60;41.40
15384;DHT22;7790;53.022;12.968;2024-03-25T13:32:38;22.60;41.50
15384;DHT22;7790;53.022;12.968;2024-03-25T13:36:39;22.60;41.60
15384;DHT22;7790;53.022;12.968;2024-03-25T13:40:40;22.50;41.60
15384;DHT22;7790;53.022;12.968;2024-03-25T13:44:41;22.60;41.40
15384;DHT22;7790;53.022;12.968;2024-03-25T13:48:42;22.60;41.40
15384;DHT22;7790;53.022;12.968;2024-03-25T13:52:43;22.60;41.40
15384;DHT22;7790;53.022;12.968;2024-03-25T13:56:43;22.70;41.30
15384;DHT22;7790;53.022;12.968;2024-03-25T14:00:46;22.70;41.30
15384;DHT22;7790;53.022;12.968;2024-03-25T14:04:47;22.70;41.10
15384;DHT22;7790;53.022;12.968;2024-03-25T14:08:47;22.70;41.10
15384;DHT22;7790;53.022;12.968;2024-03-25T14:12:48;22.70;41.10
15384;DHT22;7790;53.022;12.968;2024-03-25T14:16:49;22.70;41.10
15384;DHT22;7790;53.022;12.968;2024-03-25T14:20:53;22.70;41.00
15384;DHT22;7790;53.022;12.968;2024-03-25T14:24:54;22.70;41.00
15384;DHT22;7790;53.022;12.968;2024-03-25T14:28:58;22.70;41.00
15384;DHT22;7790;53.022;12.968;2024-03-25T14:33:00;22.80;41.10
15384;DHT22;7790;53.022;12.968;2024-03-25T14:37:01;22.70;41.00
15384;DHT22;7790;53.022;12.968;2024-03-25T14:41:05;22.70;41.00
15384;DHT22;7790;53.022;12.968;2024-03-25T14:45:06;22.60;41.00
15384;DHT22;7790;53.022;12.968;2024-03-25T14:49:07;22.60;41.10
15384;DHT22;7790;53.022;12.968;2024-03-25T14:53:08;22.50;41.20
15384;DHT22;7790;53.022;12.968;2024-03-25T14:57:09;22.40;41.10
15384;DHT22;7790;53.022;12.968;2024-03-25T15:01:09;22.50;41.00
15384;DHT22;7790;53.022;12.968;2024-03-25T15:05:10;22.50;41.00
15384;DHT22;7790;53.022;12.968;2024-03-25T15:09:11;22.60;40.90
15384;DHT22;7790;53.022;12.968;2024-03-25T15:13:13;22.60;40.90
15384;DHT22;7790;53.022;12.968;2024-03-25T15:17:14;22.60;40.90
15384;DHT22;7790;53.022;12.968;2024-03-25T15:21:14;22.60;40.80
15384;DHT22;7790;53.022;12.968;2024-03-25T15:25:15;22.60;40.80
15384;DHT22;7790;53.022;12.968;2024-03-25T15:29:16;22.70;40.80
15384;DHT22;7790;53.022;12.968;2024-03-25T15:33:17;22.70;40.80
15384;DHT22;7790;53.022;12.968;2024-03-25T15:37:18;22.60;40.90
15384;DHT22;7790;53.022;12.968;2024-03-25T15:41:19;22.60;41.00
15384;DHT22;7790;53.022;12.968;2024-03-25T15:45:20;22.70;41.30
15384;DHT22;7790;53.022;12.968;2024-03-25T15:49:21;22.70;41.30
15384;DHT22;7790;53.022;12.968;2024-03-25T15:53:22;22.80;41.40
15384;DHT22;7790;53.022;12.968;2024-03-25T15:57:22;22.80;41.50
15384;DHT22;7790;53.022;12.968;2024-03-25T16:01:23;22.70;41.50
15384;DHT22;7790;53.022;12.968;2024-03-25T16:05:24;22.60;41.90
15384;DHT22;7790;53.022;12.968;2024-03-25T16:09:29;22.50;42.20
15384;DHT22;7790;53.022;12.968;2024-03-25T16:13:30;22.50;42.20
15384;DHT22;7790;53.022;12.968;2024-03-25T16:17:32;22.60;42.30
15384;DHT22;7790;53.022;12.968;2024-03-25T16:21:33;22.50;42.20
15384;DHT22;7790;53.022;12.968;2024-03-25T16:25:34;22.40;42.20
15384;DHT22;7790;53.022;12.968;2024-03-25T16:29:35;22.60;42.40
15384;DHT22;7790;53.022;12.968;2024-03-25T16:33:35;22.50;43.40
15384;DHT22;7790;53.022;12.968;2024-03-25T16:37:36;22.50;43.50
15384;DHT22;7790;53.022;12.968;2024-03-25T16:41:37;22.50;44.80
15384;DHT22;7790;53.022;12.968;2024-03-25T16:45:39;22.50;44.90
15384;DHT22;7790;53.022;12.968;2024-03-25T16:49:40;22.40;45.00
15384;DHT22;7790;53.022;12.968;2024-03-25T16:53:41;22.50;45.10
15384;DHT22;7790;53.022;12.968;2024-03-25T16:57:42;22.60;44.90
15384;DHT22;7790;53.022;12.968;2024-03-25T17:01:43;22.60;44.80
15384;DHT22;7790;53.022;12.968;2024-03-25T17:05:43;22.70;44.50
15384;DHT22;7790;53.022;12.968;2024-03-25T17:09:44;22.70;44.60
15384;DHT22;7790;53.022;12.968;2024-03-25T17:13:45;22.80;44.50
15384;DHT22;7790;53.022;12.968;2024-03-25T17:17:46;22.60;44.60
15384;DHT22;7790;53.022;12.968;2024-03-25T17:21:47;22.70;44.20
15384;DHT22;7790;53.022;12.968;2024-03-25T17:25:48;22.70;44.00
15384;DHT22;7790;53.022;12.968;2024-03-25T17:29:49;22.60;44.00
15384;DHT22;7790;53.022;12.968;2024-03-25T17:33:50;22.80;44.10
15384;DHT22;7790;53.022;12.968;2024-03-25T17:37:51;22.90;44.00
15384;DHT22;7790;53.022;12.968;2024-03-25T17:41:51;22.70;43.80
15384;DHT22;7790;53.022;12.968;2024-03-25T17:45:53;22.60;43.90
15384;DHT22;7790;53.022;12.968;2024-03-25T17:49:53;22.50;44.10
15384;DHT22;7790;53.022;12.968;2024-03-25T17:53:55;22.40;44.40
15384;DHT22;7790;53.022;12.968;2024-03-25T17:57:56;22.40;44.70
15384;DHT22;7790;53.022;12.968;2024-03-25T18:01:57;22.70;44.70
15384;DHT22;7790;53.022;12.968;2024-03-25T18:05:58;22.70;45.70
15384;DHT22;7790;53.022;12.968;2024-03-25T18:10:00;22.70;46.30
15384;DHT22;7790;53.022;12.968;2024-03-25T18:14:00;22.70;46.40
15384;DHT22;7790;53.022;12.968;2024-03-25T18:18:01;22.80;46.20
15384;DHT22;7790;53.022;12.968;2024-03-25T18:22:02;22.80;46.10
15384;DHT22;7790;53.022;12.968;2024-03-25T18:26:03;22.90;45.60
15384;DHT22;7790;53.022;12.968;2024-03-25T18:30:04;22.90;46.10
15384;DHT22;7790;53.022;12.968;2024-03-25T18:34:08;22.80;46.30
15384;DHT22;7790;53.022;12.968;2024-03-25T18:38:09;22.80;46.30
15384;DHT22;7790;53.022;12.968;2024-03-25T18:42:10;22.70;46.50
15384;DHT22;7790;53.022;12.968;2024-03-25T18:46:11;22.70;46.30
15384;DHT22;7790;53.022;12.968;2024-03-25T18:50:11;22.70;46.00
15384;DHT22;7790;53.022;12.968;2024-03-25T18:54:12;22.50;46.20
15384;DHT22;7790;53.022;12.968;2024-03-25T18:58:13;22.40;45.40
15384;DHT22;7790;53.022;12.968;2024-03-25T19:02:14;22.40;45.10
15384;DHT22;7790;53.022;12.968;2024-03-25T19:06:15;22.20;44.70
15384;DHT22;7790;53.022;12.968;2024-03-25T19:10:16;22.40;45.20
15384;DHT22;7790;53.022;12.968;2024-03-25T19:14:18;22.50;45.40
15384;DHT22;7790;53.022;12.968;2024-03-25T19:18:19;22.60;45.10
15384;DHT22;7790;53.022;12.968;2024-03-25T19:22:20;22.60;45.30
15384;DHT22;7790;53.022;12.968;2024-03-25T19:26:24;22.70;45.50
15384;DHT22;7790;53.022;12.968;2024-03-25T19:30:25;22.70;45.30
15384;DHT22;7790;53.022;12.968;2024-03-25T19:34:26;22.70;45.40
15384;DHT22;7790;53.022;12.968;2024-03-25T19:38:27;22.80;45.40
15384;DHT22;7790;53.022;12.968;2024-03-25T19:42:28;22.80;44.80
15384;DHT22;7790;53.022;12.968;2024-03-25T19:46:29;22.90;44.90
15384;DHT22;7790;53.022;12.968;2024-03-25T19:50:30;22.90;45.10
15384;DHT22;7790;53.022;12.968;2024-03-25T19:54:31;22.90;44.60
15384;DHT22;7790;53.022;12.968;2024-03-25T19:58:31;22.90;44.90
15384;DHT22;7790;53.022;12.968;2024-03-25T20:02:32;22.90;44.80
15384;DHT22;7790;53.022;12.968;2024-03-25T20:06:33;22.80;44.90
15384;DHT22;7790;53.022;12.968;2024-03-25T20:10:34;22.70;45.00
15384;DHT22;7790;53.022;12.968;2024-03-25T20:14:35;22.60;45.10
15384;DHT22;7790;53.022;12.968;2024-03-25T20:18:35;22.50;44.90
15384;DHT22;7790;53.022;12.968;2024-03-25T20:22:36;22.50;44.70
15384;DHT22;7790;53.022;12.968;2024-03-25T20:26:37;22.50;44.70
15384;DHT22;7790;53.022;12.968;2024-03-25T20:30:38;22.50;44.60
15384;DHT22;7790;53.022;12.968;2024-03-25T20:34:39;22.50;44.60
15384;DHT22;7790;53.022;12.968;2024-03-25T20:38:40;22.50;44.70
15384;DHT22;7790;53.022;12.968;2024-03-25T20:42:41;22.50;44.40
15384;DHT22;7790;53.022;12.968;2024-03-25T20:46:42;22.50;44.30
15384;DHT22;7790;53.022;12.968;2024-03-25T20:50:43;22.60;44.20
15384;DHT22;7790;53.022;12.968;2024-03-25T20:54:44;22.60;44.10
15384;DHT22;7790;53.022;12.968;2024-03-25T20:58:44;22.70;44.10
15384;DHT22;7790;53.022;12.968;2024-03-25T21:02:45;22.70;43.80
15384;DHT22;7790;53.022;12.968;2024-03-25T21:06:46;22.70;43.70
15384;DHT22;7790;53.022;12.968;2024-03-25T21:10:47;22.70;43.80
15384;DHT22;7790;53.022;12.968;2024-03-25T21:14:48;22.70;44.00
15384;DHT22;7790;53.022;12.968;2024-03-25T21:18:48;22.80;43.80
15384;DHT22;7790;53.022;12.968;2024-03-25T21:22:50;22.80;43.90
15384;DHT22;7790;53.022;12.968;2024-03-25T21:26:51;22.70;43.90
15384;DHT22;7790;53.022;12.968;2024-03-25T21:30:52;22.70;43.80
15384;DHT22;7790;53.022;12.968;2024-03-25T21:34:53;22.70;43.80
15384;DHT22;7790;53.022;12.968;2024-03-25T21:38:53;22.70;43.70
15384;DHT22;7790;53.022;12.968;2024-03-25T21:42:54;22.70;43.60
15384;DHT22;7790;53.022;12.968;2024-03-25T21:46:55;22.70;43.60
15384;DHT22;7790;53.022;12.968;2024-03-25T21:50:56;22.70;44.00
15384;DHT22;7790;53.022;12.968;2024-03-25T21:54:58;22.80;43.50
15384;DHT22;7790;53.022;12.968;2024-03-25T21:58:58;22.80;43.30
15384;DHT22;7790;53.022;12.968;2024-03-25T22:02:59;22.70;43.30
15384;DHT22;7790;53.022;12.968;2024-03-25T22:07:00;22.70;43.20
15384;DHT22;7790;53.022;12.968;2024-03-25T22:11:01;22.60;43.00
15384;DHT22;7790;53.022;12.968;2024-03-25T22:15:01;22.50;42.90
15384;DHT22;7790;53.022;12.968;2024-03-25T22:19:02;22.50;43.00
15384;DHT22;7790;53.022;12.968;2024-03-25T22:23:03;22.50;43.20
15384;DHT22;7790;53.022;12.968;2024-03-25T22:27:04;22.50;43.20
15384;DHT22;7790;53.022;12.968;2024-03-25T22:31:05;22.50;43.10
15384;DHT22;7790;53.022;12.968;2024-03-25T22:35:06;22.50;43.10
15384;DHT22;7790;53.022;12.968;2024-03-25T22:39:07;22.50;43.10
15384;DHT22;7790;53.022;12.968;2024-03-25T22:43:09;22.60;43.10
15384;DHT22;7790;53.022;12.968;2024-03-25T22:47:10;22.60;42.90
15384;DHT22;7790;53.022;12.968;2024-03-25T22:51:11;22.60;42.90
15384;DHT22;7790;53.022;12.968;2024-03-25T22:55:12;22.60;42.70
15384;DHT22;7790;53.022;12.968;2024-03-25T22:59:13;22.60;42.80
15384;DHT22;7790;53.022;12.968;2024-03-25T23:03:14;22.60;42.70
15384;DHT22;7790;53.022;12.968;2024-03-25T23:07:15;22.70;42.60
15384;DHT22;7790;53.022;12.968;2024-03-25T23:11:18;22.70;42.50
15384;DHT22;7790;53.022;12.968;2024-03-25T23:15:18;22.70;42.40
15384;DHT22;7790;53.022;12.968;2024-03-25T23:19:19;22.70;42.40
15384;DHT22;7790;53.022;12.968;2024-03-25T23:23:20;22.70;42.20
15384;DHT22;7790;53.022;12.968;2024-03-25T23:27:21;22.70;42.30
15384;DHT22;7790;53.022;12.968;2024-03-25T23:31:22;22.70;42.30
15384;DHT22;7790;53.022;12.968;2024-03-25T23:35:23;22.70;42.20
15384;DHT22;7790;53.022;12.968;2024-03-25T23:39:24;22.70;42.10
15384;DHT22;7790;53.022;12.968;2024-03-25T23:43:26;22.70;42.10
15384;DHT22;7790;53.022;12.968;2024-03-25T23:47:27;22.70;42.10
15384;DHT22;7790;53.022;12.968;2024-03-25T23:51:28;22.70;42.00
15384;DHT22;7790;53.022;12.968;2024-03-25T23:55:29;22.70;41.80
15384;DHT22;7790;53.022;12.968;2024-03-25T23:59:29;22.70;41.90
